Other Surface Observations
Issued by NWS Missoula, MT

Home | Current Version | Previous Version | Text Only | Print | Product List | Glossary On
Versions: 1 2 3 4 5 6 7 8 9 10 11 12 13 14 15 16 17 18 19 20 21 22 23 24 25 26 27 28 29 30 31 32 33 34 35 36 37 38 39 40 41 42 43 44 45 46 47 48 49 50
000
SXUS55 KMSO 270803
OSOMSO
MONTANA AWOS SUMMARY
NATIONAL WEATHER SERVICE MISSOULA MT
103 AM MST MON APR 27 2015

Montana AWOS Reports

TWIN BRIDGES|K7S1 270755Z AUTO 00000KT 25SM M01/M04 A3022 RMK AO1 T10101038
SCOBEY      |K9S2 270755Z AUTO 00000KT 10SM 04/01 A3020 RMK AO1 T00390006
EKALAKA     |K97M 270755Z AUTO 00000KT 10SM 00/M01 A3019 RMK AO1 T00001010
LAUREL      |K6S8 270755Z AUTO 00000KT 25SM 02/M01 A3022 RMK AO1 T00171005
ROUNDUP     |KRPX 270755Z AUTO 00000KT 40SM 02/M01 A3016 RMK AO1 T00221010
MALTA       |KM75 270755Z AUTO 00000KT 40SM 03/00 A3021 RMK AO1 T00330000




USA.gov is the U.S. government's official web portal to all federal, state and local government web resources and services.